createdAt,value
2023-05-10T00:00:09.662Z,0.00
2023-05-10T00:00:40.240Z,0.00
2023-05-10T00:01:11.154Z,0.00
2023-05-10T00:01:42.425Z,0.00
2023-05-10T00:02:13.232Z,0.00
2023-05-10T00:02:44.533Z,0.00
2023-05-10T00:03:15.504Z,0.00
2023-05-10T00:03:46.518Z,0.00
2023-05-10T00:04:17.044Z,0.00
2023-05-10T00:04:48.434Z,0.00
2023-05-10T00:05:19.628Z,0.00
2023-05-10T00:05:50.495Z,0.00
2023-05-10T00:06:21.481Z,0.00
2023-05-10T00:06:52.056Z,0.00
2023-05-10T00:07:23.439Z,0.00
2023-05-10T00:07:54.083Z,0.00
2023-05-10T00:08:25.220Z,0.00
2023-05-10T00:08:56.238Z,0.00
2023-05-10T00:09:27.002Z,0.00
2023-05-10T00:09:58.346Z,0.00
2023-05-10T00:10:29.331Z,0.00
2023-05-10T00:11:00.204Z,0.00
2023-05-10T00:11:31.505Z,0.00
2023-05-10T00:12:02.399Z,0.00
2023-05-10T00:12:33.781Z,0.00
2023-05-10T00:13:04.434Z,0.00
2023-05-10T00:13:35.068Z,0.00
2023-05-10T00:14:06.333Z,0.00
2023-05-10T00:14:37.086Z,0.00
2023-05-10T00:15:08.557Z,0.00
2023-05-10T00:15:39.127Z,0.00
2023-05-10T00:16:10.000Z,0.00
2023-05-10T00:16:41.402Z,0.00
2023-05-10T00:17:12.033Z,0.00
2023-05-10T00:17:43.118Z,0.00
2023-05-10T00:18:14.378Z,0.00
2023-05-10T00:18:45.886Z,0.00
2023-05-10T00:19:16.168Z,0.00
2023-05-10T00:19:47.319Z,0.00
2023-05-10T00:20:19.102Z,0.00
2023-05-10T00:20:49.206Z,0.00
2023-05-10T00:21:20.283Z,0.00
2023-05-10T00:21:51.519Z,0.00
2023-05-10T00:22:22.070Z,0.00
2023-05-10T00:22:54.199Z,0.00
2023-05-10T00:23:24.396Z,0.00
2023-05-10T00:23:55.420Z,0.00
2023-05-10T00:24:26.161Z,0.00
2023-05-10T00:24:58.875Z,0.00
2023-05-10T00:25:28.599Z,0.00
2023-05-10T00:25:59.158Z,0.00
2023-05-10T00:26:30.318Z,0.00
2023-05-10T00:27:01.137Z,0.00
2023-05-10T00:27:32.162Z,0.00
2023-05-10T00:28:03.664Z,0.00
2023-05-10T00:28:34.610Z,0.00
2023-05-10T00:29:05.236Z,0.00
2023-05-10T00:29:36.300Z,0.00
2023-05-10T00:30:07.906Z,0.00
2023-05-10T00:30:38.123Z,0.00
2023-05-10T00:31:09.056Z,0.00
2023-05-10T00:31:40.250Z,0.00
2023-05-10T00:32:11.215Z,0.00
2023-05-10T00:32:42.301Z,0.00
2023-05-10T00:33:13.276Z,0.00
2023-05-10T00:33:44.603Z,0.00
2023-05-10T00:34:15.370Z,0.00
2023-05-10T00:34:46.121Z,0.00
2023-05-10T00:35:17.406Z,0.00
2023-05-10T00:35:48.074Z,0.00
2023-05-10T00:36:19.375Z,0.00
2023-05-10T00:36:50.172Z,0.00
2023-05-10T00:37:21.421Z,0.00
2023-05-10T00:37:52.114Z,0.00
2023-05-10T00:38:23.260Z,0.00
2023-05-10T00:38:54.364Z,0.00
2023-05-10T00:39:25.338Z,0.00
2023-05-10T00:39:56.325Z,0.00
2023-05-10T00:40:27.631Z,0.00
2023-05-10T00:40:58.428Z,0.00
2023-05-10T00:41:29.308Z,0.00
2023-05-10T00:42:00.183Z,0.00
2023-05-10T00:42:31.391Z,0.00
2023-05-10T00:43:02.159Z,0.00
2023-05-10T00:43:33.242Z,0.00
2023-05-10T00:44:04.362Z,0.00
2023-05-10T00:44:35.579Z,0.00
2023-05-10T00:45:07.339Z,0.00
2023-05-10T00:45:37.485Z,0.00
2023-05-10T00:46:08.577Z,0.00
2023-05-10T00:46:39.515Z,0.00
2023-05-10T00:47:10.310Z,0.00
2023-05-10T00:47:41.849Z,0.00
2023-05-10T00:48:12.543Z,0.00
2023-05-10T00:48:43.438Z,0.00
2023-05-10T00:49:14.556Z,0.00
2023-05-10T00:50:17.177Z,0.00
2023-05-10T00:50:47.589Z,0.00
2023-05-10T00:51:18.286Z,0.00
2023-05-10T00:51:49.285Z,0.00
2023-05-10T00:52:20.596Z,0.00
2023-05-10T00:52:51.439Z,0.00
2023-05-10T00:53:22.228Z,0.00
2023-05-10T00:53:53.306Z,0.00
2023-05-10T00:54:26.701Z,0.00
2023-05-10T00:54:55.227Z,0.00
2023-05-10T00:55:28.578Z,0.00
2023-05-10T00:55:57.181Z,0.00
2023-05-10T00:56:28.804Z,0.00
2023-05-10T00:56:59.400Z,0.00
2023-05-10T00:57:30.591Z,0.00
2023-05-10T00:58:01.938Z,0.00
2023-05-10T00:58:32.302Z,0.00
2023-05-10T00:59:03.447Z,0.00
2023-05-10T00:59:34.596Z,0.00
2023-05-10T01:00:06.245Z,0.00
2023-05-10T01:00:36.260Z,0.00
2023-05-10T01:01:07.262Z,0.00
2023-05-10T01:01:38.532Z,0.00
2023-05-10T01:02:09.273Z,0.00
2023-05-10T01:02:40.268Z,0.00
2023-05-10T01:03:11.382Z,0.00
2023-05-10T01:03:42.409Z,0.00
2023-05-10T01:04:13.607Z,0.00
2023-05-10T01:04:44.335Z,0.00
2023-05-10T01:05:16.098Z,0.00
2023-05-10T01:05:46.260Z,0.00
2023-05-10T01:06:17.501Z,0.00
2023-05-10T01:06:48.643Z,0.00
2023-05-10T01:07:19.278Z,0.00
2023-05-10T01:07:50.685Z,0.00
2023-05-10T01:08:21.797Z,0.00
2023-05-10T01:08:52.323Z,0.00
2023-05-10T01:09:23.281Z,0.00
2023-05-10T01:09:54.462Z,0.00
2023-05-10T01:10:25.974Z,0.00
2023-05-10T01:10:56.458Z,0.00
2023-05-10T01:11:27.527Z,0.00
2023-05-10T01:11:58.511Z,0.00
2023-05-10T01:12:29.721Z,0.00
2023-05-10T01:13:00.277Z,0.00
2023-05-10T01:13:31.796Z,0.00
2023-05-10T01:14:02.558Z,0.00
2023-05-10T01:14:33.362Z,0.00
2023-05-10T01:15:04.790Z,0.00
2023-05-10T01:15:35.533Z,0.00
2023-05-10T01:16:06.604Z,0.00
2023-05-10T01:16:37.292Z,0.00
2023-05-10T01:17:08.417Z,0.00
2023-05-10T01:17:39.564Z,0.00
2023-05-10T01:18:10.638Z,0.00
2023-05-10T01:18:41.770Z,0.00
2023-05-10T01:19:12.245Z,0.00
2023-05-10T01:19:43.776Z,0.00
2023-05-10T01:20:15.156Z,0.00
2023-05-10T01:20:45.286Z,0.00
2023-05-10T01:21:16.383Z,0.00
2023-05-10T01:21:47.312Z,0.00
2023-05-10T01:22:18.529Z,0.00
2023-05-10T01:22:49.702Z,0.00
2023-05-10T01:23:20.566Z,0.00
2023-05-10T01:23:51.399Z,0.00
2023-05-10T01:24:22.367Z,0.00
2023-05-10T01:24:53.564Z,0.00
2023-05-10T01:25:24.806Z,0.00
2023-05-10T01:25:57.732Z,0.00
2023-05-10T01:26:26.563Z,0.00
2023-05-10T01:26:59.876Z,0.00
2023-05-10T01:27:28.471Z,0.00
2023-05-10T01:28:00.068Z,0.00
2023-05-10T01:28:30.524Z,0.00
2023-05-10T01:29:01.810Z,0.00
2023-05-10T01:29:32.708Z,0.00
2023-05-10T01:30:34.352Z,0.00
2023-05-10T01:31:05.828Z,0.00
2023-05-10T01:31:36.836Z,0.00
2023-05-10T01:32:07.320Z,0.00
2023-05-10T01:32:38.396Z,0.00
2023-05-10T01:33:09.403Z,0.00
2023-05-10T01:33:40.384Z,0.00
2023-05-10T01:34:11.364Z,0.00
2023-05-10T01:34:42.469Z,0.00
2023-05-10T01:35:14.284Z,0.00
2023-05-10T01:35:44.403Z,0.00
2023-05-10T01:36:15.849Z,0.00
2023-05-10T01:36:46.641Z,0.00
2023-05-10T01:37:17.809Z,0.00
2023-05-10T01:37:48.410Z,0.00
2023-05-10T01:38:19.369Z,0.00
2023-05-10T01:38:50.463Z,0.00
2023-05-10T01:39:21.559Z,0.00
2023-05-10T01:39:52.341Z,0.00
2023-05-10T01:40:24.294Z,0.00
2023-05-10T01:40:54.329Z,0.00
2023-05-10T01:41:25.400Z,0.00
2023-05-10T01:41:56.809Z,0.00
2023-05-10T01:42:27.606Z,0.00
2023-05-10T01:42:58.488Z,0.00
2023-05-10T01:43:29.756Z,0.00
2023-05-10T01:44:00.485Z,0.00
2023-05-10T01:44:31.483Z,0.00
2023-05-10T01:45:03.191Z,0.00
2023-05-10T01:45:33.383Z,0.00
2023-05-10T01:46:04.635Z,0.00
2023-05-10T01:46:35.470Z,0.00
2023-05-10T01:47:06.768Z,0.00
2023-05-10T01:47:37.752Z,0.00
2023-05-10T01:48:08.524Z,0.00
2023-05-10T01:48:39.584Z,0.00
2023-05-10T01:49:10.390Z,0.00
2023-05-10T01:49:41.440Z,0.00
2023-05-10T01:50:12.698Z,0.00
2023-05-10T01:50:43.383Z,0.00
2023-05-10T01:51:14.409Z,0.00
2023-05-10T01:51:46.079Z,0.00
2023-05-10T01:52:16.395Z,0.00
2023-05-10T01:52:47.867Z,0.00
2023-05-10T01:53:18.484Z,0.00
2023-05-10T01:53:49.662Z,0.00
2023-05-10T01:54:20.820Z,0.00
2023-05-10T01:54:51.686Z,0.00
2023-05-10T01:55:22.741Z,0.00
2023-05-10T01:55:53.405Z,0.00
2023-05-10T01:56:24.681Z,0.00
2023-05-10T01:56:55.498Z,0.00
2023-05-10T01:57:28.521Z,0.00
2023-05-10T01:57:57.652Z,0.00
2023-05-10T01:58:29.722Z,0.00
2023-05-10T01:58:59.786Z,0.00
2023-05-10T01:59:31.002Z,0.00
2023-05-10T02:00:02.472Z,0.00
2023-05-10T02:00:32.838Z,0.00
2023-05-10T02:01:03.793Z,0.00
2023-05-10T02:01:34.817Z,0.00
2023-05-10T02:02:05.607Z,0.00
2023-05-10T02:02:36.772Z,0.00
2023-05-10T02:03:07.508Z,0.00
2023-05-10T02:03:38.506Z,0.00
2023-05-10T02:04:09.541Z,0.00
2023-05-10T02:04:40.445Z,0.00
2023-05-10T02:05:11.741Z,0.00
2023-05-10T02:05:43.006Z,0.00
2023-05-10T02:06:13.495Z,0.00
2023-05-10T02:06:44.524Z,0.00
2023-05-10T02:07:15.696Z,0.00
2023-05-10T02:07:46.482Z,0.00
2023-05-10T02:08:17.794Z,0.00
2023-05-10T02:08:48.789Z,0.00
2023-05-10T02:09:19.715Z,0.00
2023-05-10T02:09:50.763Z,0.00
2023-05-10T02:10:22.086Z,0.00
2023-05-10T02:10:52.487Z,0.00
2023-05-10T02:11:23.473Z,0.00
2023-05-10T02:11:54.518Z,0.00
2023-05-10T02:12:25.904Z,0.00
2023-05-10T02:12:56.503Z,0.00
2023-05-10T02:13:27.515Z,0.00
2023-05-10T02:13:58.546Z,0.00
2023-05-10T02:14:29.804Z,0.00
2023-05-10T02:15:01.361Z,0.00
2023-05-10T02:15:31.720Z,0.00
2023-05-10T02:16:03.132Z,0.00
2023-05-10T02:16:33.596Z,0.00
2023-05-10T02:17:04.654Z,0.00
2023-05-10T02:17:35.872Z,0.00
2023-05-10T02:18:06.553Z,0.00
2023-05-10T02:18:37.739Z,0.00
2023-05-10T02:19:08.719Z,0.00
2023-05-10T02:19:39.888Z,0.00
2023-05-10T02:20:11.258Z,0.00
2023-05-10T02:20:41.955Z,0.00
2023-05-10T02:21:13.081Z,0.00
2023-05-10T02:21:43.914Z,0.00
2023-05-10T02:22:14.513Z,0.00
2023-05-10T02:22:46.223Z,0.00
2023-05-10T02:23:16.551Z,0.00
2023-05-10T02:23:47.569Z,0.00
2023-05-10T02:24:18.540Z,0.00
2023-05-10T02:24:49.794Z,0.00
2023-05-10T02:25:21.271Z,0.00
2023-05-10T02:25:51.584Z,0.00
2023-05-10T02:26:22.640Z,0.00
2023-05-10T02:26:53.525Z,0.00
2023-05-10T02:27:24.560Z,0.00
2023-05-10T02:27:55.800Z,0.00
2023-05-10T02:28:26.914Z,0.00
2023-05-10T02:28:59.914Z,0.00
2023-05-10T02:29:28.806Z,0.00
2023-05-10T02:30:02.644Z,0.00
2023-05-10T02:30:30.634Z,0.00
2023-05-10T02:31:01.522Z,0.00
2023-05-10T02:31:33.010Z,0.00
2023-05-10T02:32:04.071Z,0.00
2023-05-10T02:32:34.908Z,0.00
2023-05-10T02:33:05.613Z,0.00
2023-05-10T02:33:36.570Z,0.00
2023-05-10T02:34:07.597Z,0.00
2023-05-10T02:34:38.949Z,0.00
2023-05-10T02:35:09.954Z,0.00
2023-05-10T02:35:40.479Z,0.00
2023-05-10T02:36:11.922Z,0.00
2023-05-10T02:36:42.792Z,0.00
2023-05-10T02:37:13.572Z,0.00
2023-05-10T02:37:44.838Z,0.00
2023-05-10T02:38:15.858Z,0.00
2023-05-10T02:38:46.755Z,0.00
2023-05-10T02:39:17.561Z,0.00
2023-05-10T02:39:48.571Z,0.00
2023-05-10T02:40:20.076Z,0.00
2023-05-10T02:40:50.899Z,0.00
2023-05-10T02:41:21.800Z,0.00
2023-05-10T02:41:52.624Z,0.00
2023-05-10T02:42:23.563Z,0.00
2023-05-10T02:42:54.959Z,0.00
2023-05-10T02:43:25.884Z,0.00
2023-05-10T02:43:56.638Z,0.00
2023-05-10T02:44:27.960Z,0.00
2023-05-10T02:44:58.881Z,0.00
2023-05-10T02:45:30.513Z,0.00
2023-05-10T02:46:00.801Z,0.00
2023-05-10T02:46:32.763Z,0.00
2023-05-10T02:47:02.679Z,0.00
2023-05-10T02:47:33.989Z,0.00
2023-05-10T02:48:04.737Z,0.00
2023-05-10T02:48:35.630Z,0.00
2023-05-10T02:49:06.749Z,0.00
2023-05-10T02:49:37.981Z,0.00
2023-05-10T02:50:09.127Z,0.00
2023-05-10T02:50:39.588Z,0.00
2023-05-10T02:51:10.935Z,0.00
2023-05-10T02:51:41.681Z,0.00
2023-05-10T02:52:12.763Z,0.00
2023-05-10T02:52:43.724Z,0.00
2023-05-10T02:53:14.930Z,0.00
2023-05-10T02:53:45.667Z,0.00
2023-05-10T02:54:16.886Z,0.00
2023-05-10T02:54:47.948Z,0.00
2023-05-10T02:55:19.395Z,0.00
2023-05-10T02:55:49.943Z,0.00
2023-05-10T02:56:21.030Z,0.00
2023-05-10T02:56:51.900Z,0.00
2023-05-10T02:57:23.445Z,0.00
2023-05-10T02:57:53.661Z,0.00
2023-05-10T02:58:25.261Z,0.00
2023-05-10T02:58:55.667Z,0.00
2023-05-10T02:59:26.643Z,0.00
2023-05-10T02:59:57.661Z,0.00
2023-05-10T03:00:30.804Z,0.00
2023-05-10T03:01:00.315Z,0.00
2023-05-10T03:01:33.180Z,0.00
2023-05-10T03:02:02.578Z,0.00
2023-05-10T03:02:33.543Z,0.00
2023-05-10T03:03:03.640Z,0.00
2023-05-10T03:03:36.547Z,0.00
2023-05-10T03:04:06.405Z,0.00
2023-05-10T03:04:37.118Z,0.00
2023-05-10T03:05:08.004Z,0.00
2023-05-10T03:05:38.982Z,0.00
2023-05-10T03:06:10.660Z,0.00
2023-05-10T03:06:41.128Z,0.00
2023-05-10T03:07:11.931Z,0.00
2023-05-10T03:07:43.278Z,0.00
2023-05-10T03:08:14.244Z,0.00
2023-05-10T03:08:44.688Z,0.00
2023-05-10T03:09:15.862Z,0.00
2023-05-10T03:09:47.072Z,0.00
2023-05-10T03:10:18.405Z,0.00
2023-05-10T03:10:48.954Z,0.00
2023-05-10T03:11:20.562Z,0.00
2023-05-10T03:11:51.100Z,0.00
2023-05-10T03:12:21.691Z,0.00
2023-05-10T03:12:52.819Z,0.00
2023-05-10T03:13:23.866Z,0.00
2023-05-10T03:13:54.725Z,0.00
2023-05-10T03:14:25.891Z,0.00
2023-05-10T03:14:56.891Z,0.00
2023-05-10T03:15:28.741Z,0.00
2023-05-10T03:15:59.122Z,0.00
2023-05-10T03:16:30.365Z,0.00
2023-05-10T03:17:00.708Z,0.00
2023-05-10T03:17:32.220Z,0.00
2023-05-10T03:18:03.235Z,0.00
2023-05-10T03:18:34.312Z,0.00
2023-05-10T03:19:05.186Z,0.00
2023-05-10T03:19:36.219Z,0.00
2023-05-10T03:20:07.384Z,0.00
2023-05-10T03:20:37.761Z,0.00
2023-05-10T03:21:09.134Z,0.00
2023-05-10T03:21:40.093Z,0.00
2023-05-10T03:22:10.928Z,0.00
2023-05-10T03:22:42.564Z,0.00
2023-05-10T03:23:13.434Z,0.00
2023-05-10T03:23:43.685Z,0.00
2023-05-10T03:24:14.782Z,0.00
2023-05-10T03:24:46.244Z,0.00
2023-05-10T03:25:17.750Z,0.00
2023-05-10T03:25:47.716Z,0.00
2023-05-10T03:26:18.985Z,0.00
2023-05-10T03:26:49.689Z,0.00
2023-05-10T03:27:20.771Z,0.00
2023-05-10T03:27:52.000Z,0.00
2023-05-10T03:28:23.369Z,0.00
2023-05-10T03:28:54.137Z,0.00
2023-05-10T03:29:25.005Z,0.00
2023-05-10T03:29:56.005Z,0.00
2023-05-10T03:30:27.679Z,0.00
2023-05-10T03:30:57.930Z,0.00
2023-05-10T03:31:29.106Z,0.00
2023-05-10T03:32:01.240Z,0.00
2023-05-10T03:32:31.196Z,0.00
2023-05-10T03:33:03.042Z,0.00
2023-05-10T03:33:33.362Z,0.00
2023-05-10T03:34:04.150Z,0.00
2023-05-10T03:34:35.100Z,0.00
2023-05-10T03:35:06.456Z,0.00
2023-05-10T03:35:36.687Z,0.00
2023-05-10T03:36:08.048Z,0.00
2023-05-10T03:36:38.794Z,0.00
2023-05-10T03:37:09.983Z,0.00
2023-05-10T03:37:40.991Z,0.00
2023-05-10T03:38:12.087Z,0.00
2023-05-10T03:38:43.505Z,0.00
2023-05-10T03:39:13.692Z,0.00
2023-05-10T03:39:45.182Z,0.00
2023-05-10T03:40:16.284Z,0.00
2023-05-10T03:40:46.720Z,0.00
2023-05-10T03:41:17.895Z,0.00
2023-05-10T03:41:48.808Z,0.00
2023-05-10T03:42:20.066Z,0.00
2023-05-10T03:42:51.361Z,0.00
2023-05-10T03:43:22.083Z,0.00
2023-05-10T03:43:53.105Z,0.00
2023-05-10T03:44:24.542Z,0.00
2023-05-10T03:44:56.037Z,0.00
2023-05-10T03:45:26.890Z,0.00
2023-05-10T03:45:56.964Z,0.00
2023-05-10T03:46:27.879Z,0.00
2023-05-10T03:46:59.225Z,0.00
2023-05-10T03:47:30.508Z,0.00
2023-05-10T03:48:01.429Z,0.36
2023-05-10T03:48:32.495Z,0.00
2023-05-10T03:49:03.065Z,0.00
2023-05-10T03:49:35.118Z,0.36
2023-05-10T03:50:05.924Z,0.85
2023-05-10T03:50:36.720Z,0.85
2023-05-10T03:51:06.897Z,1.22
2023-05-10T03:51:37.813Z,0.00
2023-05-10T03:52:09.364Z,1.71
2023-05-10T03:52:40.242Z,1.71
2023-05-10T03:53:11.133Z,1.22
2023-05-10T03:53:41.867Z,1.71
2023-05-10T03:54:13.149Z,2.08
2023-05-10T03:54:43.972Z,2.08
2023-05-10T03:55:15.242Z,1.71
2023-05-10T03:55:45.968Z,2.57
2023-05-10T03:56:17.205Z,2.57
2023-05-10T03:56:48.219Z,1.71
2023-05-10T03:57:19.495Z,3.43
2023-05-10T03:57:50.275Z,2.57
2023-05-10T03:58:21.266Z,3.43
2023-05-10T03:58:52.283Z,3.79
2023-05-10T03:59:22.868Z,4.28
2023-05-10T03:59:53.805Z,4.28
2023-05-10T04:00:25.631Z,3.79
2023-05-10T04:00:56.223Z,4.28
2023-05-10T04:01:26.825Z,4.77
2023-05-10T04:01:58.055Z,4.77
2023-05-10T04:02:29.141Z,5.14
2023-05-10T04:03:00.157Z,5.14
2023-05-10T04:03:32.969Z,5.63
2023-05-10T04:04:02.349Z,5.63
2023-05-10T04:04:34.584Z,5.99
2023-05-10T04:05:04.406Z,6.48
2023-05-10T04:05:35.144Z,6.48
2023-05-10T04:06:06.086Z,6.48
2023-05-10T04:06:37.203Z,6.48
2023-05-10T04:07:08.440Z,7.34
2023-05-10T04:07:39.400Z,7.70
2023-05-10T04:08:10.194Z,7.34
2023-05-10T04:08:40.991Z,8.56
2023-05-10T04:09:12.664Z,8.19
2023-05-10T04:09:42.846Z,8.56
2023-05-10T04:10:14.843Z,8.56
2023-05-10T04:10:44.912Z,8.56
2023-05-10T04:11:15.907Z,9.05
2023-05-10T04:11:47.144Z,9.05
2023-05-10T04:12:17.977Z,9.05
2023-05-10T04:12:48.965Z,9.91
2023-05-10T04:13:20.597Z,9.05
2023-05-10T04:13:51.092Z,9.54
2023-05-10T04:14:21.968Z,10.39
2023-05-10T04:14:53.304Z,10.39
2023-05-10T04:15:24.672Z,10.39
2023-05-10T04:15:55.442Z,11.62
2023-05-10T04:16:26.097Z,12.11
2023-05-10T04:16:57.432Z,11.25
2023-05-10T04:17:28.003Z,12.48
2023-05-10T04:17:59.407Z,12.11
2023-05-10T04:18:30.262Z,12.97
2023-05-10T04:19:01.026Z,13.33
2023-05-10T04:19:32.075Z,12.97
2023-05-10T04:20:03.245Z,13.33
2023-05-10T04:20:34.942Z,13.82
2023-05-10T04:21:05.065Z,13.82
2023-05-10T04:21:36.613Z,14.68
2023-05-10T04:22:06.970Z,15.17
2023-05-10T04:22:38.720Z,14.68
2023-05-10T04:23:09.366Z,15.17
2023-05-10T04:23:40.526Z,15.53
2023-05-10T04:24:12.706Z,16.02
2023-05-10T04:24:42.086Z,16.02
2023-05-10T04:25:13.751Z,16.39
2023-05-10T04:25:44.703Z,16.39
2023-05-10T04:26:15.681Z,16.88
2023-05-10T04:26:46.768Z,17.25
2023-05-10T04:27:17.529Z,18.11
2023-05-10T04:27:48.542Z,17.25
2023-05-10T04:28:19.540Z,17.73
2023-05-10T04:28:49.983Z,17.25
2023-05-10T04:29:21.104Z,18.60
2023-05-10T04:29:52.429Z,18.60
2023-05-10T04:30:24.309Z,19.94
2023-05-10T04:30:54.099Z,19.45
2023-05-10T04:31:25.055Z,19.94
2023-05-10T04:31:56.282Z,20.31
2023-05-10T04:32:27.783Z,19.45
2023-05-10T04:32:58.084Z,20.31
2023-05-10T04:33:29.249Z,21.16
2023-05-10T04:34:00.181Z,21.65
2023-05-10T04:34:31.446Z,20.80
2023-05-10T04:35:05.102Z,21.65
2023-05-10T04:35:33.359Z,22.02
2023-05-10T04:36:04.251Z,21.65
2023-05-10T04:36:35.491Z,22.51
2023-05-10T04:37:07.684Z,23.36
2023-05-10T04:37:37.329Z,22.87
2023-05-10T04:38:08.745Z,23.36
2023-05-10T04:38:39.512Z,23.85
2023-05-10T04:39:10.758Z,24.22
2023-05-10T04:39:42.518Z,25.07
2023-05-10T04:40:12.372Z,25.56
2023-05-10T04:40:42.988Z,25.56
2023-05-10T04:41:14.050Z,27.28
2023-05-10T04:41:45.009Z,28.14
2023-05-10T04:42:16.203Z,28.14
2023-05-10T04:42:47.325Z,28.99
2023-05-10T04:43:18.311Z,30.70
2023-05-10T04:43:49.320Z,31.56
2023-05-10T04:44:20.047Z,33.39
2023-05-10T04:44:51.177Z,33.39
2023-05-10T04:45:22.836Z,33.76
2023-05-10T04:45:53.273Z,34.62
2023-05-10T04:46:24.248Z,35.97
2023-05-10T04:46:55.479Z,37.19
2023-05-10T04:47:26.089Z,38.53
2023-05-10T04:47:57.314Z,39.88
2023-05-10T04:48:28.244Z,40.24
2023-05-10T04:48:59.491Z,42.45
2023-05-10T04:49:30.435Z,42.94
2023-05-10T04:50:01.519Z,44.16
2023-05-10T04:50:32.492Z,44.16
2023-05-10T04:51:03.510Z,45.51
2023-05-10T04:51:34.252Z,46.73
2023-05-10T04:52:05.137Z,46.73
2023-05-10T04:52:36.243Z,47.71
2023-05-10T04:53:07.221Z,48.07
2023-05-10T04:53:38.234Z,48.56
2023-05-10T04:54:09.681Z,46.73
2023-05-10T04:54:40.338Z,47.71
2023-05-10T04:55:11.407Z,47.71
2023-05-10T04:55:42.400Z,49.79
2023-05-10T04:56:13.109Z,50.65
2023-05-10T04:56:44.360Z,50.65
2023-05-10T04:57:15.499Z,51.14
2023-05-10T04:57:46.385Z,51.50
2023-05-10T04:58:17.397Z,51.50
2023-05-10T04:58:48.631Z,50.28
2023-05-10T04:59:19.753Z,51.14
2023-05-10T04:59:50.631Z,53.70
2023-05-10T05:00:22.128Z,54.56
2023-05-10T05:00:52.071Z,55.90
2023-05-10T05:01:23.155Z,56.76
2023-05-10T05:01:54.383Z,57.25
2023-05-10T05:02:25.347Z,56.27
2023-05-10T05:02:57.476Z,57.25
2023-05-10T05:03:27.440Z,58.11
2023-05-10T05:03:58.462Z,58.97
2023-05-10T05:04:29.133Z,59.82
2023-05-10T05:05:00.182Z,60.19
2023-05-10T05:05:32.279Z,62.39
2023-05-10T05:06:02.048Z,62.39
2023-05-10T05:06:35.321Z,63.73
2023-05-10T05:07:04.411Z,64.59
2023-05-10T05:07:37.517Z,65.45
2023-05-10T05:08:06.883Z,65.94
2023-05-10T05:08:37.870Z,65.94
2023-05-10T05:09:08.142Z,67.16
2023-05-10T05:09:39.553Z,67.65
2023-05-10T05:10:10.828Z,66.80
2023-05-10T05:10:41.476Z,68.02
2023-05-10T05:11:12.082Z,68.51
2023-05-10T05:11:43.302Z,68.02
2023-05-10T05:12:14.459Z,68.51
2023-05-10T05:12:45.291Z,67.65
2023-05-10T05:13:16.629Z,67.65
2023-05-10T05:13:47.313Z,67.16
2023-05-10T05:14:18.442Z,67.16
2023-05-10T05:14:49.675Z,66.31
2023-05-10T05:15:20.678Z,66.31
2023-05-10T05:15:51.998Z,66.31
2023-05-10T05:16:22.955Z,66.80
2023-05-10T05:16:53.666Z,65.94
2023-05-10T05:17:24.542Z,66.80
2023-05-10T05:17:55.440Z,64.59
2023-05-10T05:18:26.183Z,65.45
2023-05-10T05:18:57.341Z,65.45
2023-05-10T05:19:28.412Z,65.45
2023-05-10T05:19:59.418Z,65.94
2023-05-10T05:20:30.963Z,65.94
2023-05-10T05:21:01.413Z,65.94
2023-05-10T05:21:32.436Z,66.80
2023-05-10T05:22:03.408Z,66.80
2023-05-10T05:22:34.703Z,67.65
2023-05-10T05:23:05.602Z,68.02
2023-05-10T05:23:36.628Z,68.51
2023-05-10T05:24:07.611Z,70.71
2023-05-10T05:24:38.527Z,71.56
2023-05-10T05:25:10.084Z,71.56
2023-05-10T05:25:40.503Z,71.93
2023-05-10T05:26:11.661Z,72.42
2023-05-10T05:26:42.445Z,72.42
2023-05-10T05:27:13.203Z,72.42
2023-05-10T05:27:44.664Z,73.65
2023-05-10T05:28:15.123Z,74.50
2023-05-10T05:28:46.165Z,75.85
2023-05-10T05:29:17.358Z,75.48
2023-05-10T05:29:48.641Z,76.70
2023-05-10T05:30:20.048Z,78.05
2023-05-10T05:30:50.181Z,78.05
2023-05-10T05:31:21.625Z,78.90
2023-05-10T05:31:54.758Z,78.90
2023-05-10T05:32:23.900Z,79.27
2023-05-10T05:32:54.512Z,80.25
2023-05-10T05:33:25.596Z,80.62
2023-05-10T05:33:56.380Z,80.62
2023-05-10T05:34:27.500Z,81.10
2023-05-10T05:34:58.493Z,81.48
2023-05-10T05:35:29.861Z,82.33
2023-05-10T05:36:00.132Z,82.33
2023-05-10T05:36:31.253Z,83.68
2023-05-10T05:37:02.242Z,84.53
2023-05-10T05:37:33.533Z,85.02
2023-05-10T05:38:06.860Z,86.24
2023-05-10T05:38:35.424Z,87.59
2023-05-10T05:39:07.750Z,87.96
2023-05-10T05:39:37.284Z,88.82
2023-05-10T05:40:09.527Z,89.31
2023-05-10T05:40:39.489Z,89.31
2023-05-10T05:41:10.261Z,89.79
2023-05-10T05:41:41.458Z,89.31
2023-05-10T05:42:12.201Z,89.31
2023-05-10T05:42:43.688Z,89.31
2023-05-10T05:43:14.713Z,90.16
2023-05-10T05:43:45.628Z,89.79
2023-05-10T05:44:16.602Z,89.79
2023-05-10T05:44:47.377Z,88.82
2023-05-10T05:45:19.812Z,89.31
2023-05-10T05:45:49.667Z,89.31
2023-05-10T05:46:20.692Z,89.31
2023-05-10T05:46:51.642Z,88.82
2023-05-10T05:47:22.625Z,89.79
2023-05-10T05:47:53.400Z,89.31
2023-05-10T05:48:24.263Z,90.16
2023-05-10T05:48:56.291Z,90.16
2023-05-10T05:49:26.212Z,90.16
2023-05-10T05:49:57.786Z,89.31
2023-05-10T05:50:29.240Z,89.79
2023-05-10T05:50:59.244Z,89.31
2023-05-10T05:51:30.515Z,89.79
2023-05-10T05:52:01.721Z,89.31
2023-05-10T05:52:32.930Z,88.82
2023-05-10T05:53:04.015Z,88.45
2023-05-10T05:53:34.401Z,88.45
2023-05-10T05:54:05.436Z,89.79
2023-05-10T05:54:36.345Z,89.79
2023-05-10T05:55:07.478Z,90.16
2023-05-10T05:55:38.644Z,91.02
2023-05-10T05:56:09.721Z,91.51
2023-05-10T05:56:40.604Z,91.87
2023-05-10T05:57:11.722Z,91.02
2023-05-10T05:57:42.796Z,91.02
2023-05-10T05:58:13.387Z,91.02
2023-05-10T05:58:44.897Z,90.16
2023-05-10T05:59:16.169Z,88.82
2023-05-10T05:59:46.300Z,88.45
2023-05-10T06:00:18.701Z,87.10
2023-05-10T06:00:48.533Z,85.88
2023-05-10T06:01:19.628Z,84.53
2023-05-10T06:01:50.516Z,84.04
2023-05-10T06:02:21.919Z,82.33
2023-05-10T06:02:53.157Z,82.82
2023-05-10T06:03:24.174Z,82.82
2023-05-10T06:03:54.353Z,82.82
2023-05-10T06:04:25.402Z,83.68
2023-05-10T06:04:56.510Z,83.19
2023-05-10T06:05:28.109Z,84.53
2023-05-10T06:05:58.405Z,86.24
2023-05-10T06:06:29.888Z,85.88
2023-05-10T06:07:00.662Z,86.73
2023-05-10T06:07:31.313Z,89.79
2023-05-10T06:08:02.981Z,91.02
2023-05-10T06:08:33.644Z,91.51
2023-05-10T06:09:04.787Z,93.58
2023-05-10T06:09:36.354Z,95.42
2023-05-10T06:10:07.005Z,98.36
2023-05-10T06:10:39.952Z,101.41
2023-05-10T06:11:08.724Z,103.61
2023-05-10T06:11:40.884Z,106.19
2023-05-10T06:12:10.351Z,108.39
2023-05-10T06:12:41.903Z,110.10
2023-05-10T06:13:12.734Z,112.67
2023-05-10T06:13:43.528Z,114.02
2023-05-10T06:14:14.676Z,114.87
2023-05-10T06:14:45.704Z,117.07
2023-05-10T06:15:17.328Z,118.42
2023-05-10T06:15:47.582Z,119.27
2023-05-10T06:16:18.851Z,120.13
2023-05-10T06:16:49.838Z,121.36
2023-05-10T06:17:20.822Z,122.34
2023-05-10T06:17:51.829Z,122.34
2023-05-10T06:18:22.728Z,122.34
2023-05-10T06:18:54.052Z,121.85
2023-05-10T06:19:24.747Z,121.85
2023-05-10T06:19:55.824Z,121.85
2023-05-10T06:20:26.744Z,122.34
2023-05-10T06:20:57.583Z,123.56
2023-05-10T06:21:28.660Z,123.19
2023-05-10T06:21:59.889Z,122.34
2023-05-10T06:22:31.117Z,123.19
2023-05-10T06:23:01.849Z,122.70
2023-05-10T06:23:32.902Z,120.99
2023-05-10T06:24:03.742Z,120.13
2023-05-10T06:24:34.282Z,118.78
2023-05-10T06:25:05.764Z,118.78
2023-05-10T06:25:36.528Z,117.93
2023-05-10T06:26:07.526Z,117.93
2023-05-10T06:26:38.390Z,120.50
2023-05-10T06:27:10.051Z,122.70
2023-05-10T06:27:40.940Z,124.90
2023-05-10T06:28:12.240Z,127.96
2023-05-10T06:28:42.894Z,131.39
2023-05-10T06:29:13.956Z,133.59
2023-05-10T06:29:44.950Z,134.81
2023-05-10T06:30:17.014Z,137.02
2023-05-10T06:30:47.102Z,138.36
2023-05-10T06:31:17.831Z,140.07
2023-05-10T06:31:48.786Z,142.27
2023-05-10T06:32:20.272Z,143.99
2023-05-10T06:32:51.017Z,144.85
2023-05-10T06:33:21.908Z,144.85
2023-05-10T06:33:55.394Z,146.19
2023-05-10T06:34:23.924Z,147.41
2023-05-10T06:34:54.462Z,148.76
2023-05-10T06:35:25.867Z,152.19
2023-05-10T06:35:56.925Z,154.39
2023-05-10T06:36:28.162Z,156.59
2023-05-10T06:36:58.848Z,158.67
2023-05-10T06:37:29.802Z,161.36
2023-05-10T06:38:01.000Z,163.07
2023-05-10T06:38:32.179Z,162.22
2023-05-10T06:39:02.894Z,161.73
2023-05-10T06:39:33.854Z,159.53
2023-05-10T06:40:04.856Z,157.44
2023-05-10T06:40:36.297Z,155.73
2023-05-10T06:41:09.154Z,153.53
2023-05-10T06:41:37.501Z,153.04
2023-05-10T06:42:10.689Z,149.98
2023-05-10T06:42:40.367Z,149.12
2023-05-10T06:43:12.366Z,148.27
2023-05-10T06:43:41.553Z,148.27
2023-05-10T06:44:12.788Z,147.05
2023-05-10T06:44:44.217Z,147.05
2023-05-10T06:45:15.149Z,147.41
2023-05-10T06:45:45.884Z,149.98
2023-05-10T06:46:16.543Z,150.96
2023-05-10T06:46:47.615Z,153.53
2023-05-10T06:47:18.606Z,156.10